Time;durP1;ratioP1;P1;durP2;ratioP2;P2;SDS_P1;SDS_P2;PMS_P1;PMS_P2;Temp;Humidity;BMP_temperature;BMP_pressure;BME280_temperature;BME280_humidity;BME280_pressure;Samples;Min_cycle;Max_cycle;Signal;HPM_P1;HPM_P2
2023/10/27 00:01:22;;;;;;;12.90;10.30;;;8.80;99.90;;;-141.84;100.00;118956.03;4996956;28;20313;-62
2023/10/27 00:03:50;;;;;;;12.40;11.07;;;8.80;99.90;;;-141.84;100.00;117622.84;4989433;28;20290;-62
2023/10/27 00:06:20;;;;;;;14.20;11.83;;;8.80;99.90;;;-141.84;100.00;114957.72;5001360;28;20270;-62
2023/10/27 00:08:48;;;;;;;13.87;11.50;;;8.90;99.90;;;-141.84;100.00;110697.16;4997124;28;20207;-62
2023/10/27 00:11:16;;;;;;;13.93;10.90;;;8.90;99.90;;;-141.84;100.00;107238.72;4999159;28;20298;-60
2023/10/27 00:13:45;;;;;;;11.47;9.67;;;8.90;99.90;;;-141.84;100.00;107238.72;4995933;28;20211;-61
2023/10/27 00:16:14;;;;;;;12.43;9.90;;;8.90;99.90;;;-141.84;100.00;109100.59;4991861;28;20261;-61
2023/10/27 00:18:43;;;;;;;11.90;10.20;;;8.80;99.90;;;-141.84;100.00;112028.13;4995100;28;20211;-61
2023/10/27 00:21:11;;;;;;;13.67;10.60;;;8.80;99.90;;;-141.84;100.00;114158.53;4995772;28;20225;-61
2023/10/27 00:23:41;;;;;;;12.10;10.80;;;8.70;99.90;;;-141.84;100.00;114957.72;4997403;28;20203;-61
2023/10/27 00:26:09;;;;;;;13.10;11.70;;;8.70;99.90;;;-141.84;100.00;116290.06;4994480;28;20199;-60
2023/10/27 00:28:38;;;;;;;13.10;11.43;;;8.60;99.90;;;-141.84;100.00;117089.69;4995133;28;20196;-63
2023/10/27 00:31:06;;;;;;;14.33;11.63;;;8.60;99.90;;;-141.84;100.00;118156.06;4994223;28;20729;-64
2023/10/27 00:33:34;;;;;;;13.97;12.10;;;8.60;99.90;;;-141.84;100.00;118956.03;4998118;28;20290;-63
2023/10/27 00:36:03;;;;;;;13.90;12.37;;;8.50;99.90;;;-141.84;100.00;118956.03;4994556;28;20204;-64
2023/10/27 00:38:31;;;;;;;13.17;11.77;;;8.50;99.90;;;-141.84;100.00;119222.75;4994934;28;20203;-64
2023/10/27 00:41:01;;;;;;;13.63;11.93;;;8.50;99.90;;;-141.84;100.00;119224.81;4998236;28;20721;-63
2023/10/27 00:43:29;;;;;;;13.37;10.53;;;8.50;99.90;;;-141.84;100.00;119222.75;4993608;28;20725;-65
2023/10/27 00:45:59;;;;;;;10.63;9.53;;;8.60;99.90;;;-141.84;100.00;118156.06;4991945;28;20322;-64
2023/10/27 00:48:29;;;;;;;11.40;10.20;;;8.60;99.90;;;-141.84;100.00;118422.72;4996839;28;20215;-63
2023/10/27 00:59:38;;;;;;;10.67;8.83;;;8.40;99.90;;;-141.84;100.00;119224.81;4970215;28;20238;-65
2023/10/27 01:02:06;;;;;;;11.43;9.67;;;8.40;99.90;;;-141.84;100.00;119224.81;4993474;28;20275;-66
2023/10/27 01:04:35;;;;;;;10.93;9.33;;;8.30;99.90;;;-141.84;100.00;119224.81;4992932;28;20861;-65
2023/10/27 01:07:04;;;;;;;11.17;9.97;;;8.40;99.90;;;-141.84;100.00;119224.81;4993753;28;20203;-66
2023/10/27 01:09:32;;;;;;;11.13;9.50;;;8.40;99.90;;;-141.84;100.00;119224.81;4996330;28;20247;-65
2023/10/27 01:12:00;;;;;;;11.37;9.37;;;8.40;99.90;;;-141.84;100.00;119224.81;4997618;28;20278;-66
2023/10/27 01:14:29;;;;;;;11.60;9.07;;;8.40;99.90;;;-141.84;100.00;119224.81;4997709;28;20290;-65
2023/10/27 01:16:58;;;;;;;10.83;9.10;;;8.40;99.90;;;-141.84;100.00;119224.81;4990707;28;20230;-63
2023/10/27 01:19:26;;;;;;;10.97;9.87;;;8.30;99.90;;;-141.84;100.00;119224.81;4991470;28;20247;-63
2023/10/27 01:21:55;;;;;;;11.60;9.97;;;8.30;99.90;;;-141.84;100.00;119224.81;4994492;28;20227;-63
2023/10/27 01:24:25;;;;;;;11.90;9.93;;;8.40;99.90;;;-141.84;100.00;119224.81;4995364;28;20214;-63
2023/10/27 01:26:53;;;;;;;11.10;9.30;;;8.30;99.90;;;-141.84;100.00;119224.81;4995164;28;20578;-63
2023/10/27 01:29:22;;;;;;;14.70;10.10;;;8.40;99.90;;;-141.84;100.00;119224.81;4996773;28;20205;-63
2023/10/27 01:31:50;;;;;;;11.37;9.07;;;8.30;99.90;;;-141.84;100.00;119224.81;4990374;28;20520;-63
2023/10/27 01:34:19;;;;;;;13.37;9.80;;;8.30;99.90;;;-141.84;100.00;119224.81;4990384;28;20686;-61
2023/10/27 01:36:47;;;;;;;10.83;9.70;;;8.30;99.90;;;-141.84;100.00;119222.75;4997672;28;20624;-62
2023/10/27 01:39:15;;;;;;;11.03;9.63;;;8.30;99.90;;;-141.84;100.00;119222.75;4999548;28;20306;-63
2023/10/27 01:41:45;;;;;;;12.13;9.70;;;8.30;99.90;;;-141.84;100.00;119222.75;4997924;28;21259;-63
2023/10/27 01:44:13;;;;;;;12.77;9.93;;;8.30;99.90;;;-141.84;100.00;119222.75;4991270;28;20286;-63
2023/10/27 01:46:41;;;;;;;12.90;9.50;;;8.40;99.90;;;-141.84;100.00;119222.75;4997309;28;20223;-62
2023/10/27 01:49:09;;;;;;;10.87;9.40;;;8.40;99.90;;;-141.84;100.00;119222.75;5000055;28;20203;-63
2023/10/27 01:51:38;;;;;;;10.67;9.57;;;8.40;99.90;;;-141.84;100.00;118956.03;4995552;28;20249;-63
2023/10/27 01:54:06;;;;;;;11.43;9.63;;;8.40;99.90;;;-141.84;100.00;118156.06;4999388;28;20285;-62
2023/10/27 01:56:34;;;;;;;9.87;8.73;;;8.50;99.90;;;-141.84;100.00;116290.06;4995933;28;20249;-62
2023/10/27 01:59:04;;;;;;;11.47;9.23;;;8.50;99.90;;;-141.84;100.00;115490.59;4993115;28;20231;-62
2023/10/27 02:01:32;;;;;;;11.20;9.27;;;8.50;99.90;;;-141.84;100.00;114691.31;4998493;28;20270;-62
2023/10/27 02:04:00;;;;;;;11.13;9.13;;;8.50;99.90;;;-141.84;100.00;111761.88;4994864;28;20250;-63
2023/10/27 02:06:29;;;;;;;10.60;9.27;;;8.50;99.90;;;-141.84;100.00;110164.91;4997578;28;20541;-62
2023/10/27 02:08:57;;;;;;;10.10;8.97;;;8.50;99.90;;;-141.84;100.00;109100.59;4995635;28;20285;-62
2023/10/27 02:11:26;;;;;;;11.50;9.20;;;8.50;99.90;;;-141.84;100.00;110697.16;4996075;28;20203;-62
2023/10/27 02:13:55;;;;;;;11.00;9.40;;;8.50;99.90;;;-141.84;100.00;110963.31;4991355;28;20262;-62
2023/10/27 02:16:24;;;;;;;9.97;8.93;;;8.40;99.90;;;-141.84;100.00;112028.13;4997357;28;20694;-62
2023/10/27 02:18:53;;;;;;;11.40;9.03;;;8.50;99.90;;;-141.84;100.00;112826.88;4994672;28;20196;-63
2023/10/27 02:21:21;;;;;;;10.60;9.30;;;8.50;99.90;;;-141.84;100.00;113359.50;4996201;28;20223;-63
2023/10/27 02:23:49;;;;;;;10.77;9.20;;;8.40;99.90;;;-141.84;100.00;114424.91;4989854;28;20363;-62
2023/10/27 02:26:17;;;;;;;9.37;8.37;;;8.50;99.90;;;-141.84;100.00;114691.31;4989577;28;20223;-62
2023/10/27 02:28:46;;;;;;;10.30;8.67;;;8.50;99.90;;;-141.84;100.00;113625.81;4995567;28;20596;-62
2023/10/27 02:31:14;;;;;;;10.20;8.67;;;8.60;99.90;;;-141.84;100.00;112560.63;4994992;28;20302;-62
2023/10/27 02:33:44;;;;;;;11.50;9.13;;;8.70;99.90;;;-141.84;100.00;112294.34;4989842;28;20210;-62
2023/10/27 02:36:12;;;;;;;10.70;8.50;;;8.80;99.90;;;-141.84;100.00;109632.72;4996418;28;20265;-62
2023/10/27 02:38:40;;;;;;;9.50;8.50;;;8.90;99.90;;;-141.84;100.00;109100.59;4994790;28;20294;-62
2023/10/27 02:41:09;;;;;;;9.17;7.83;;;8.90;99.90;;;-141.84;100.00;109898.81;4995360;28;20326;-62
2023/10/27 02:43:38;;;;;;;9.30;8.30;;;9.00;99.90;;;-141.84;100.00;110963.31;4994136;28;20753;-63
2023/10/27 02:46:06;;;;;;;10.50;8.83;;;9.00;99.90;;;-141.84;100.00;110963.31;4995671;28;20207;-62
2023/10/27 02:48:35;;;;;;;11.07;9.63;;;9.10;99.90;;;-141.84;100.00;110697.16;5000234;28;20291;-62
2023/10/27 02:51:05;;;;;;;10.73;8.93;;;9.10;99.90;;;-141.84;100.00;108036.56;5000708;28;20558;-63
2023/10/27 02:53:33;;;;;;;11.20;9.17;;;9.10;99.90;;;-141.84;100.00;104048.94;5001902;28;20206;-63
2023/10/27 02:56:06;;;;;;;11.27;9.50;;;9.10;99.90;;;-141.84;100.00;101923.81;4995996;28;20759;-63
2023/10/27 02:58:35;;;;;;;10.17;8.97;;;9.20;99.90;;;-141.84;100.00;100861.66;4997276;28;20199;-63
2023/10/27 03:01:08;;;;;;;9.73;8.73;;;9.20;99.90;;;-141.84;100.00;97676.88;5001868;28;20280;-62
2023/10/27 03:03:38;;;;;;;9.73;8.73;;;9.20;99.90;;;-141.84;100.00;96085.44;4998593;28;20210;-62
2023/10/27 03:06:08;;;;;;;10.83;9.00;;;9.20;99.90;;;-141.84;100.00;92904.41;4995043;28;20199;-63
2023/10/27 03:08:36;;;;;;;9.13;8.13;;;9.20;99.90;;;-141.84;100.00;91049.97;4993585;28;20199;-62
2023/10/27 03:11:05;;;;;;;8.97;8.07;;;9.20;99.90;;;-141.84;100.00;90520.28;4998097;28;20203;-62
2023/10/27 03:13:33;;;;;;;11.57;8.73;;;9.20;99.90;;;-141.84;100.00;91049.97;4996145;28;20195;-62
2023/10/27 03:16:03;;;;;;;9.73;8.67;;;9.20;99.90;;;-141.84;100.00;92639.44;4992740;28;20239;-62
2023/10/27 03:18:32;;;;;;;9.63;8.43;;;9.20;99.90;;;-141.84;100.00;94759.69;4998314;28;20210;-62
2023/10/27 03:21:04;;;;;;;10.73;8.83;;;9.20;99.90;;;-141.84;100.00;95555.09;4995390;28;20199;-62
2023/10/27 03:23:33;;;;;;;9.50;8.50;;;9.30;99.90;;;-141.84;100.00;94229.53;4995916;28;20718;-62
2023/10/27 03:26:02;;;;;;;10.43;8.47;;;9.30;99.90;;;-141.84;100.00;93434.41;4996952;28;20227;-64
2023/10/27 03:28:31;;;;;;;11.37;8.97;;;9.30;99.90;;;-141.84;100.00;90785.09;5000861;28;20777;-64
2023/10/27 03:30:59;;;;;;;10.37;9.10;;;9.30;99.90;;;-141.84;100.00;87608.25;4992512;28;20199;-65
2023/10/27 03:33:27;;;;;;;11.23;9.10;;;9.40;99.90;;;-141.84;100.00;86285.31;4993746;28;20203;-63
2023/10/27 03:35:56;;;;;;;10.03;8.40;;;9.40;99.90;;;-141.84;100.00;82319.06;4992103;28;20250;-64
2023/10/27 03:38:24;;;;;;;10.30;8.67;;;9.40;99.90;;;-141.84;100.00;81262.06;4993460;28;20206;-63
2023/10/27 03:40:54;;;;;;;10.47;8.77;;;9.40;99.90;;;-141.84;100.00;78092.72;4997244;28;20669;-64
2023/10/27 03:43:22;;;;;;;9.17;8.17;;;9.40;99.90;;;-141.84;100.00;76772.88;4989738;28;20219;-64
2023/10/27 03:45:50;;;;;;;10.83;9.10;;;9.50;99.90;;;-141.84;100.00;75981.22;4998338;28;20199;-64
2023/10/27 03:48:19;;;;;;;10.20;9.03;;;9.50;99.90;;;-141.84;100.00;74134.56;5001084;28;20621;-65
2023/10/27 03:50:47;;;;;;;10.00;8.30;;;9.50;99.90;;;-141.84;100.00;75189.69;4996072;28;20285;-63
2023/10/27 03:53:16;;;;;;;13.17;8.97;;;9.50;99.90;;;-141.84;100.00;73343.38;4997470;28;20353;-64
2023/10/27 03:55:44;;;;;;;9.93;8.77;;;9.50;99.90;;;-141.84;100.00;73343.38;4996491;28;20843;-63
2023/10/27 03:58:18;;;;;;;8.40;7.37;;;9.50;99.90;;;-141.84;100.00;78884.81;4998064;28;20203;-64
2023/10/27 04:00:54;;;;;;;9.40;8.37;;;9.50;99.90;;;-141.84;100.00;82847.66;4994986;28;20206;-64
2023/10/27 04:03:23;;;;;;;10.70;8.87;;;9.50;99.90;;;-141.84;100.00;76245.09;4998491;28;20223;-64
2023/10/27 04:05:51;;;;;;;12.07;9.17;;;9.50;99.90;;;-141.84;100.00;70970.84;4990056;28;20287;-65
2023/10/27 04:08:19;;;;;;;10.87;9.47;;;9.50;99.90;;;-141.84;100.00;71761.53;4996822;28;20227;-63
2023/10/27 04:10:47;;;;;;;11.30;9.20;;;9.50;99.90;;;-141.84;100.00;65966.75;4999471;28;20671;-63
2023/10/27 04:13:17;;;;;;;10.87;9.63;;;9.60;99.90;;;-141.84;100.00;70443.78;4995261;28;20692;-64
2023/10/27 04:15:45;;;;;;;14.10;9.73;;;9.50;99.90;;;-141.84;100.00;74925.88;4988893;28;20547;-63
2023/10/27 04:18:13;;;;;;;11.47;10.00;;;9.50;99.90;;;-141.84;100.00;74925.88;4997576;28;20203;-64
2023/10/27 04:20:42;;;;;;;10.97;9.37;;;9.50;99.90;;;-141.84;100.00;74662.09;4989327;28;20214;-64
2023/10/27 04:23:10;;;;;;;12.90;9.93;;;9.50;99.90;;;-141.84;100.00;73343.38;4995498;28;20219;-64
2023/10/27 04:25:39;;;;;;;9.93;8.43;;;9.50;99.90;;;-141.84;100.00;75717.34;4995914;28;20204;-63
2023/10/27 04:28:07;;;;;;;10.77;9.63;;;9.50;99.90;;;-141.84;100.00;77828.72;4992840;28;20200;-63
2023/10/27 04:30:37;;;;;;;10.77;9.50;;;9.50;99.90;;;-141.84;100.00;76245.09;4995428;28;20233;-63
2023/10/27 04:33:06;;;;;;;12.37;9.20;;;9.50;99.90;;;-141.84;100.00;77828.72;4997438;28;20195;-64
2023/10/27 04:35:34;;;;;;;12.67;9.80;;;9.50;99.90;;;-141.84;100.00;78092.72;4995510;28;20214;-64
2023/10/27 04:38:03;;;;;;;13.20;10.43;;;9.40;99.90;;;-141.84;100.00;80469.50;4997724;28;20286;-64
2023/10/27 04:40:34;;;;;;;10.93;9.40;;;9.40;99.90;;;-141.84;100.00;81526.28;4991680;28;20294;-64
2023/10/27 04:43:03;;;;;;;11.40;9.00;;;9.40;99.90;;;-141.84;100.00;82583.34;4993757;28;20207;-64
2023/10/27 04:45:31;;;;;;;11.23;9.60;;;9.40;99.90;;;-141.84;100.00;82847.66;4994044;28;20207;-65
2023/10/27 04:48:01;;;;;;;10.70;8.53;;;9.50;99.90;;;-141.84;100.00;78884.81;4999778;28;20245;-65
2023/10/27 04:50:32;;;;;;;10.87;9.03;;;9.50;99.90;;;-141.84;100.00;74134.56;4992594;28;20207;-63
2023/10/27 04:53:00;;;;;;;10.67;8.87;;;9.50;99.90;;;-141.84;100.00;76245.09;4994010;28;20202;-64
2023/10/27 04:55:29;;;;;;;11.60;9.17;;;9.50;99.90;;;-141.84;100.00;81262.06;4996675;28;20253;-64
2023/10/27 04:57:59;;;;;;;12.20;9.40;;;9.50;99.90;;;-141.84;100.00;83905.09;4990997;28;20211;-64
2023/10/27 05:00:30;;;;;;;12.13;10.07;;;9.50;99.90;;;-141.84;100.00;84433.91;4997048;28;20223;-64
2023/10/27 05:02:58;;;;;;;11.80;9.90;;;9.50;99.90;;;-141.84;100.00;77564.72;4991067;28;20358;-64
2023/10/27 05:05:27;;;;;;;10.57;9.33;;;9.60;99.90;;;-141.84;100.00;75189.69;4999015;28;20203;-64
2023/10/27 05:07:57;;;;;;;11.30;9.40;;;9.60;99.90;;;-141.84;100.00;69916.81;4994490;28;20195;-64
2023/10/27 05:10:25;;;;;;;11.43;10.23;;;9.70;99.90;;;-141.84;100.00;61757.66;4996189;28;20313;-63
2023/10/27 05:12:53;;;;;;;11.90;9.83;;;9.70;99.90;;;-141.84;100.00;58603.75;4994144;28;20210;-63
2023/10/27 05:15:21;;;;;;;11.80;9.53;;;9.80;99.90;;;-141.84;100.00;46275.03;4994996;28;20196;-64
2023/10/27 05:17:49;;;;;;;11.53;10.33;;;9.90;99.90;;;-141.84;100.00;42610.09;4991060;28;20639;-64
2023/10/27 05:20:18;;;;;;;12.13;10.83;;;9.90;99.90;;;-141.84;100.00;55189.84;4993707;28;20207;-63
2023/10/27 05:22:48;;;;;;;13.63;11.30;;;9.90;99.90;;;-141.84;100.00;63335.53;4999744;28;20458;-63
2023/10/27 05:25:16;;;;;;;13.67;10.77;;;9.80;99.90;;;-141.84;100.00;66756.44;4996540;28;20227;-64
2023/10/27 05:27:44;;;;;;;11.90;10.30;;;9.80;99.90;;;-141.84;100.00;77036.81;4993322;28;20199;-64
2023/10/27 05:30:14;;;;;;;11.57;10.37;;;9.80;99.90;;;-141.84;100.00;86814.44;4996404;28;20643;-64
2023/10/27 05:32:42;;;;;;;13.77;10.87;;;9.80;99.90;;;-141.84;100.00;94494.59;4987728;28;20235;-63
2023/10/27 05:35:10;;;;;;;12.40;10.57;;;9.70;99.90;;;-141.84;100.00;100330.69;4999093;28;20741;-64
2023/10/27 05:37:38;;;;;;;13.10;10.83;;;9.70;99.90;;;-141.84;100.00;99268.97;4996228;28;20290;-64
2023/10/27 05:40:09;;;;;;;13.67;11.27;;;9.70;99.90;;;-141.84;100.00;100330.69;4992538;28;20230;-64
2023/10/27 05:42:38;;;;;;;16.27;11.57;;;9.70;99.90;;;-141.84;100.00;103783.25;4994593;28;20196;-64
2023/10/27 05:45:08;;;;;;;14.30;12.03;;;9.70;99.90;;;-141.84;100.00;106441.06;4994435;28;20223;-65
2023/10/27 05:47:36;;;;;;;13.90;11.53;;;9.70;99.90;;;-141.84;100.00;104580.41;4990213;28;20658;-63
2023/10/27 05:50:06;;;;;;;14.90;11.77;;;9.70;99.90;;;-141.84;100.00;104314.66;4997032;28;20203;-64
2023/10/27 05:52:35;;;;;;;12.70;10.63;;;9.70;99.90;;;-141.84;100.00;102455.00;4993719;28;20390;-63
2023/10/27 05:55:04;;;;;;;12.17;10.33;;;9.70;99.90;;;-141.84;100.00;104846.16;4996026;28;20572;-63
2023/10/27 05:57:33;;;;;;;16.30;12.83;;;9.70;99.90;;;-141.84;100.00;108568.56;4990994;28;20204;-64
2023/10/27 06:00:02;;;;;;;15.20;11.57;;;9.70;99.90;;;-141.84;100.00;110963.31;4993669;28;20237;-63
2023/10/27 06:02:30;;;;;;;14.07;12.20;;;9.60;99.90;;;-141.84;100.00;112560.63;4995835;28;20220;-64
2023/10/27 06:04:58;;;;;;;13.40;11.67;;;9.70;99.90;;;-141.84;100.00;114691.31;4993339;28;20311;-65
2023/10/27 06:07:26;;;;;;;14.50;12.67;;;9.60;99.90;;;-141.84;100.00;116290.06;4989037;28;20242;-64
2023/10/27 06:09:55;;;;;;;13.03;11.40;;;9.50;99.90;;;-141.84;100.00;117356.25;4996122;28;20218;-64
2023/10/27 06:12:23;;;;;;;15.03;11.97;;;9.60;99.90;;;-141.84;100.00;118422.72;4991963;28;20318;-63
2023/10/27 06:14:53;;;;;;;17.90;13.37;;;9.50;99.90;;;-141.84;100.00;118956.03;4995693;28;20662;-63
2023/10/27 06:17:21;;;;;;;15.53;13.70;;;9.50;99.90;;;-141.84;100.00;119222.75;4990554;28;20730;-63
2023/10/27 06:19:49;;;;;;;15.43;13.33;;;9.50;99.90;;;-141.84;100.00;119224.81;5002722;28;20230;-64
2023/10/27 06:22:36;;;;;;;15.93;13.20;;;9.50;99.90;;;-141.84;100.00;119224.81;4994027;28;20231;-64
2023/10/27 06:25:05;;;;;;;15.90;13.43;;;9.50;99.90;;;-141.84;100.00;119224.81;5002821;28;20223;-64
2023/10/27 06:27:37;;;;;;;17.10;13.47;;;9.50;99.90;;;-141.84;100.00;119224.81;4996131;28;20207;-64
2023/10/27 06:30:08;;;;;;;17.60;14.57;;;9.50;99.90;;;-141.84;100.00;119222.75;4996201;28;20234;-65
2023/10/27 06:32:37;;;;;;;18.63;15.00;;;9.60;99.90;;;-141.84;100.00;118689.38;4999300;28;20206;-66
2023/10/27 06:35:05;;;;;;;17.67;14.57;;;9.60;99.90;;;-141.84;100.00;117089.69;4997031;28;20553;-65
2023/10/27 06:37:35;;;;;;;18.60;14.00;;;9.60;99.90;;;-141.84;100.00;116823.13;5003687;28;20209;-65
2023/10/27 06:40:04;;;;;;;16.30;13.63;;;9.60;99.90;;;-141.84;100.00;116823.13;4999379;28;20253;-66
2023/10/27 06:42:33;;;;;;;20.00;13.50;;;9.50;99.90;;;-141.84;100.00;117356.25;4997154;28;20603;-66
2023/10/27 06:45:03;;;;;;;17.97;14.37;;;9.60;99.90;;;-141.84;100.00;116290.06;4996624;28;20215;-64
2023/10/27 06:47:34;;;;;;;18.30;13.63;;;9.60;99.90;;;-141.84;100.00;114691.31;4996816;28;20207;-62
2023/10/27 06:50:04;;;;;;;17.53;13.67;;;9.60;99.90;;;-141.84;100.00;115490.59;4998226;28;20286;-62
2023/10/27 06:52:33;;;;;;;18.47;13.87;;;9.60;99.90;;;-141.84;100.00;116823.13;4995059;28;20282;-62
2023/10/27 06:55:02;;;;;;;18.30;14.10;;;9.50;99.90;;;-141.84;100.00;118956.03;4996190;28;20664;-62
2023/10/27 06:57:31;;;;;;;18.10;13.83;;;9.50;99.90;;;-141.84;100.00;119224.81;4996645;28;20212;-61
2023/10/27 07:00:00;;;;;;;19.03;15.07;;;9.50;99.90;;;-141.84;100.00;119224.81;4996725;28;20250;-62
2023/10/27 07:02:28;;;;;;;18.70;14.37;;;9.40;99.90;;;-141.84;100.00;119224.81;5000621;28;20671;-62
2023/10/27 07:05:08;;;;;;;16.37;13.63;;;9.40;99.90;;;-141.84;100.00;119224.81;4999155;28;20203;-63
2023/10/27 07:07:38;;;;;;;17.73;13.77;;;9.40;99.90;;;-141.84;100.00;119224.81;4996057;28;20196;-61
2023/10/27 07:10:07;;;;;;;19.30;14.50;;;9.40;99.90;;;-141.84;100.00;119224.81;4996112;28;20196;-62
2023/10/27 07:12:35;;;;;;;18.60;14.00;;;9.40;99.90;;;-141.84;100.00;119224.81;4994343;28;20654;-61
2023/10/27 07:15:05;;;;;;;16.97;13.07;;;9.50;99.90;;;-141.84;100.00;119224.81;5001055;28;20213;-61
2023/10/27 07:17:33;;;;;;;18.37;13.53;;;9.40;99.90;;;-141.84;100.00;119224.81;5001616;28;20705;-61
2023/10/27 07:20:03;;;;;;;17.47;13.70;;;9.50;99.90;;;-141.84;100.00;119224.81;4992833;28;20199;-62
2023/10/27 07:22:32;;;;;;;18.87;13.13;;;9.50;99.90;;;-141.84;100.00;119222.75;4997326;28;20579;-61
2023/10/27 07:25:01;;;;;;;17.77;13.40;;;9.40;99.90;;;-141.84;100.00;119224.81;4995894;28;20307;-61
2023/10/27 07:27:29;;;;;;;19.87;14.37;;;9.30;99.90;;;-141.84;100.00;119224.81;4995911;28;20467;-60
2023/10/27 07:29:57;;;;;;;19.20;14.33;;;9.40;99.90;;;-141.84;100.00;119224.81;4998000;28;20198;-62
2023/10/27 07:32:25;;;;;;;20.73;15.23;;;9.30;99.90;;;-141.84;100.00;119224.81;4998406;28;20303;-62
2023/10/27 07:34:54;;;;;;;19.00;14.57;;;9.30;99.90;;;-141.84;100.00;119224.81;4994465;28;20527;-67
2023/10/27 07:37:23;;;;;;;21.73;15.37;;;9.40;99.90;;;-141.84;100.00;119224.81;4992611;28;20203;-65
2023/10/27 07:39:53;;;;;;;17.80;13.70;;;9.40;99.90;;;-141.84;100.00;119224.81;4999103;28;20302;-66
2023/10/27 07:42:21;;;;;;;22.17;16.00;;;9.30;99.90;;;-141.84;100.00;119224.81;5000320;28;20629;-66
2023/10/27 07:44:49;;;;;;;19.57;14.47;;;9.30;99.90;;;-141.84;100.00;119224.81;4997657;28;20782;-65
2023/10/27 07:47:17;;;;;;;18.07;14.20;;;9.30;99.90;;;-141.84;100.00;119224.81;5001195;28;20298;-66
2023/10/27 07:49:45;;;;;;;18.87;13.73;;;9.40;99.90;;;-141.84;100.00;119224.81;4999878;28;20214;-66
2023/10/27 07:52:14;;;;;;;22.93;15.47;;;9.40;99.90;;;-141.84;100.00;119224.81;4996555;28;20231;-66
2023/10/27 07:54:42;;;;;;;20.70;15.70;;;9.40;99.90;;;-141.84;100.00;119224.81;4996783;28;20246;-67
2023/10/27 07:57:12;;;;;;;20.37;15.47;;;9.40;99.90;;;-141.84;100.00;119224.81;4995199;28;20798;-65
2023/10/27 07:59:40;;;;;;;23.50;17.00;;;9.30;99.90;;;-141.84;100.00;119224.81;4994445;28;20317;-66
2023/10/27 08:02:08;;;;;;;24.20;16.23;;;9.30;99.90;;;-141.84;100.00;119224.81;4995359;28;20710;-66
2023/10/27 08:04:37;;;;;;;24.73;16.97;;;9.30;99.90;;;-141.84;100.00;119224.81;4996548;28;20229;-66
2023/10/27 08:07:06;;;;;;;21.73;16.13;;;9.30;99.90;;;-141.84;100.00;119224.81;4991210;28;20581;-65
2023/10/27 08:09:34;;;;;;;24.00;16.17;;;9.30;99.90;;;-141.84;100.00;119224.81;4990239;28;20203;-66
2023/10/27 08:12:03;;;;;;;22.33;15.77;;;9.20;99.90;;;-141.84;100.00;119224.81;4992884;28;20234;-66
2023/10/27 08:14:35;;;;;;;24.63;17.17;;;9.20;99.90;;;-141.84;100.00;119224.81;4996974;28;20203;-66
2023/10/27 08:17:03;;;;;;;21.07;15.43;;;9.20;99.90;;;-141.84;100.00;119224.81;4993189;28;20222;-66
2023/10/27 08:19:32;;;;;;;24.43;16.90;;;9.20;99.90;;;-141.84;100.00;119224.81;4989846;28;20234;-65
2023/10/27 08:22:00;;;;;;;23.37;16.37;;;9.30;99.90;;;-141.84;100.00;119224.81;4991842;28;20227;-66
2023/10/27 08:24:28;;;;;;;23.43;16.83;;;9.40;99.90;;;-141.84;100.00;119224.81;4993771;28;20254;-65
2023/10/27 08:26:56;;;;;;;25.40;17.10;;;9.40;99.90;;;-141.84;100.00;119224.81;4990968;28;20202;-65
2023/10/27 08:29:25;;;;;;;24.33;17.40;;;9.30;99.90;;;-141.84;100.00;119224.81;4997664;28;20651;-66
2023/10/27 08:31:55;;;;;;;23.87;17.80;;;9.30;99.90;;;-141.84;100.00;119224.81;4989201;28;20206;-67
2023/10/27 08:34:23;;;;;;;25.80;17.03;;;9.30;99.90;;;-141.84;100.00;119224.81;4994433;28;20208;-67
2023/10/27 08:36:51;;;;;;;25.53;17.87;;;9.40;99.90;;;-141.84;100.00;119224.81;4991240;28;20257;-67
2023/10/27 08:39:19;;;;;;;23.57;16.60;;;9.40;99.90;;;-141.84;100.00;119224.81;4994871;28;20194;-67
2023/10/27 08:41:49;;;;;;;25.77;18.23;;;9.40;99.90;;;-141.84;100.00;119224.81;4996254;28;20238;-66
2023/10/27 08:44:18;;;;;;;25.77;18.90;;;9.40;99.90;;;-141.84;100.00;119224.81;5000962;28;20590;-66
2023/10/27 08:46:54;;;;;;;24.67;17.97;;;9.40;99.90;;;-141.84;100.00;119224.81;4996818;28;20585;-67
2023/10/27 08:49:22;;;;;;;24.63;18.23;;;9.40;99.90;;;-141.84;100.00;119224.81;4996204;28;20191;-66
2023/10/27 08:51:51;;;;;;;25.80;17.80;;;9.40;99.90;;;-141.84;100.00;119224.81;4992153;28;20250;-67
2023/10/27 08:54:22;;;;;;;23.93;17.27;;;9.40;99.90;;;-141.84;100.00;119224.81;4989232;28;20286;-67
2023/10/27 08:56:50;;;;;;;24.50;17.20;;;9.40;99.90;;;-141.84;100.00;119224.81;4994932;28;20344;-67
2023/10/27 08:59:18;;;;;;;24.83;16.03;;;9.40;99.90;;;-141.84;100.00;119224.81;4988399;28;20809;-67
2023/10/27 09:01:46;;;;;;;23.83;16.43;;;9.40;99.90;;;-141.84;100.00;119224.81;4986806;28;20287;-68
2023/10/27 09:04:19;;;;;;;24.13;17.30;;;9.30;99.90;;;-141.84;100.00;119224.81;4991119;28;20199;-67
2023/10/27 09:06:48;;;;;;;24.20;15.90;;;9.40;99.90;;;-141.84;100.00;119224.81;4991997;28;20215;-68
2023/10/27 09:09:16;;;;;;;23.33;16.30;;;9.40;99.90;;;-141.84;100.00;119224.81;4996676;28;20208;-67
2023/10/27 09:11:47;;;;;;;23.83;16.30;;;9.40;99.90;;;-141.84;100.00;119224.81;4994699;28;20229;-66
2023/10/27 09:14:20;;;;;;;28.17;18.30;;;9.50;99.90;;;-141.84;100.00;119224.81;4991972;28;20190;-68
2023/10/27 09:16:48;;;;;;;26.13;18.90;;;9.60;99.90;;;-141.84;100.00;119224.81;4993503;28;20663;-67
2023/10/27 09:19:26;;;;;;;27.33;19.10;;;9.60;99.90;;;-141.84;100.00;119224.81;4989157;28;20298;-67
2023/10/27 09:21:55;;;;;;;25.57;19.10;;;9.60;99.90;;;-141.84;100.00;119224.81;4992274;28;20203;-68
2023/10/27 09:24:26;;;;;;;29.13;20.63;;;9.60;99.90;;;-141.84;100.00;119224.81;4990648;28;20239;-68
2023/10/27 09:26:55;;;;;;;22.77;16.60;;;9.70;99.90;;;-141.84;100.00;119224.81;4996285;28;22608;-69
2023/10/27 09:29:24;;;;;;;21.47;15.80;;;9.80;99.90;;;-141.84;100.00;119224.81;4993047;28;20586;-68
2023/10/27 09:31:53;;;;;;;21.50;14.77;;;9.70;99.90;;;-141.84;100.00;119224.81;4992767;28;20282;-69
2023/10/27 09:34:24;;;;;;;20.57;15.13;;;9.70;99.90;;;-141.84;100.00;119224.81;4994902;28;20693;-68
2023/10/27 09:36:56;;;;;;;21.70;14.87;;;9.80;99.90;;;-141.84;100.00;119224.81;4991345;28;20206;-68
2023/10/27 09:39:24;;;;;;;18.77;13.63;;;9.90;99.90;;;-141.84;100.00;119224.81;4993320;28;20199;-68
2023/10/27 09:42:02;;;;;;;19.67;14.03;;;9.90;99.90;;;-141.84;100.00;119224.81;4995591;28;20195;-67
2023/10/27 09:44:45;;;;;;;22.03;15.10;;;9.90;99.90;;;-141.84;100.00;119224.81;4995598;28;20215;-65
2023/10/27 09:47:24;;;;;;;17.67;13.07;;;9.90;99.90;;;-141.84;100.00;119224.81;4992347;28;20302;-68
2023/10/27 09:50:06;;;;;;;18.83;14.00;;;9.90;99.90;;;-141.84;100.00;119224.81;4996249;28;20701;-68
2023/10/27 09:52:35;;;;;;;18.10;13.13;;;10.00;99.90;;;-141.84;100.00;119224.81;4993413;28;20199;-66
2023/10/27 09:55:05;;;;;;;18.37;13.07;;;10.00;99.90;;;-141.84;100.00;119224.81;4992499;28;20257;-67
2023/10/27 09:57:44;;;;;;;17.47;12.70;;;10.00;99.90;;;-141.84;100.00;119224.81;4991733;28;20850;-67
2023/10/27 10:00:18;;;;;;;16.87;12.23;;;10.00;99.90;;;-141.84;100.00;119224.81;4992430;28;20231;-66
2023/10/27 10:02:48;;;;;;;15.57;12.03;;;10.00;99.90;;;-141.84;100.00;119224.81;4989391;28;20195;-67
2023/10/27 10:05:18;;;;;;;16.50;11.33;;;10.00;99.90;;;-141.84;100.00;119224.81;4994114;28;20204;-68
2023/10/27 10:07:52;;;;;;;16.03;11.67;;;10.10;99.90;;;-141.84;100.00;119224.81;4995765;28;20198;-68
2023/10/27 10:10:29;;;;;;;16.13;11.63;;;10.10;99.90;;;-141.84;100.00;119224.81;4998625;28;20200;-67